createdAt,value
2018-02-07T00:01:01.003Z,33.80
2018-02-07T00:03:29.386Z,32.43
2018-02-07T00:05:57.757Z,28.77
2018-02-07T00:08:26.881Z,34.20
2018-02-07T00:10:54.459Z,38.57
2018-02-07T00:13:22.362Z,39.57
2018-02-07T00:15:49.945Z,39.57
2018-02-07T00:18:18.278Z,32.23
2018-02-07T00:20:45.891Z,33.60
2018-02-07T00:23:14.254Z,30.87
2018-02-07T00:25:41.834Z,35.97
2018-02-07T00:28:09.769Z,36.40
2018-02-07T00:30:37.468Z,30.27
2018-02-07T00:33:05.057Z,41.43
2018-02-07T00:35:32.665Z,34.37
2018-02-07T00:38:00.235Z,36.50
2018-02-07T00:40:28.584Z,30.63
2018-02-07T00:42:56.176Z,35.90
2018-02-07T00:45:24.519Z,37.63
2018-02-07T00:47:52.107Z,39.37
2018-02-07T00:50:20.490Z,33.10
2018-02-07T00:52:48.072Z,36.70
2018-02-07T00:55:15.681Z,38.83
2018-02-07T00:57:44.024Z,37.50
2018-02-07T01:00:13.756Z,38.67
2018-02-07T01:02:41.906Z,42.33
2018-02-07T01:05:09.474Z,34.77
2018-02-07T01:07:37.154Z,44.73
2018-02-07T01:10:05.520Z,40.83
2018-02-07T01:12:33.084Z,40.73
2018-02-07T01:15:01.051Z,39.17
2018-02-07T01:17:28.612Z,38.77
2018-02-07T01:19:56.194Z,38.00
2018-02-07T01:22:24.900Z,42.77
2018-02-07T01:24:52.475Z,35.83
2018-02-07T01:27:20.091Z,41.20
2018-02-07T01:29:48.433Z,40.10
2018-02-07T01:32:16.039Z,41.33
2018-02-07T01:34:44.676Z,40.87
2018-02-07T01:37:12.268Z,40.23
2018-02-07T01:39:39.846Z,42.10
2018-02-07T01:42:08.488Z,47.97
2018-02-07T01:44:36.061Z,44.47
2018-02-07T01:47:05.961Z,41.30
2018-02-07T01:49:34.092Z,40.70
2018-02-07T01:52:02.423Z,45.13
2018-02-07T01:54:29.989Z,44.67
2018-02-07T01:56:57.820Z,45.17
2018-02-07T01:59:25.380Z,40.80
2018-02-07T02:01:53.228Z,45.43
2018-02-07T02:04:21.232Z,44.10
2018-02-07T02:06:48.800Z,46.63
2018-02-07T02:09:16.390Z,42.83
2018-02-07T02:11:44.628Z,44.80
2018-02-07T02:14:13.313Z,42.73
2018-02-07T02:16:40.881Z,46.97
2018-02-07T02:19:08.488Z,42.93
2018-02-07T02:21:36.087Z,47.83
2018-02-07T02:24:03.653Z,45.47
2018-02-07T02:26:31.252Z,48.97
2018-02-07T02:28:58.819Z,50.30
2018-02-07T02:31:26.419Z,48.20
2018-02-07T02:33:53.986Z,43.50
2018-02-07T02:36:33.712Z,47.20
2018-02-07T02:39:01.323Z,52.00
2018-02-07T02:41:29.645Z,53.30
2018-02-07T02:43:57.522Z,44.03
2018-02-07T02:46:25.123Z,49.10
2018-02-07T02:48:53.464Z,49.57
2018-02-07T02:51:22.151Z,53.90
2018-02-07T02:53:49.756Z,48.80
2018-02-07T02:56:17.606Z,56.80
2018-02-07T02:58:46.237Z,46.57
2018-02-07T03:01:13.812Z,51.80
2018-02-07T03:03:41.386Z,45.63
2018-02-07T03:06:09.348Z,48.23
2018-02-07T03:08:36.926Z,48.30
2018-02-07T03:11:05.270Z,51.03
2018-02-07T03:13:33.154Z,56.03
2018-02-07T03:16:00.770Z,47.67
2018-02-07T03:18:28.337Z,55.07
2018-02-07T03:20:55.922Z,53.63
2018-02-07T03:23:23.551Z,49.53
2018-02-07T03:25:51.154Z,58.73
2018-02-07T03:28:18.735Z,50.97
2018-02-07T03:30:47.064Z,53.10
2018-02-07T03:33:14.952Z,49.77
2018-02-07T03:35:42.532Z,53.77
2018-02-07T03:38:10.860Z,46.77
2018-02-07T03:40:38.463Z,44.10
2018-02-07T03:43:06.849Z,52.87
2018-02-07T03:45:35.227Z,64.10
2018-02-07T03:48:03.590Z,51.27
2018-02-07T03:50:32.339Z,55.00
2018-02-07T03:52:59.921Z,47.93
2018-02-07T03:55:27.488Z,60.60
2018-02-07T03:57:55.340Z,53.80
2018-02-07T04:00:23.070Z,54.40
2018-02-07T04:02:50.633Z,49.67
2018-02-07T04:05:18.511Z,48.67
2018-02-07T04:07:46.233Z,55.43
2018-02-07T04:10:13.812Z,56.23
2018-02-07T04:12:41.805Z,51.67
2018-02-07T04:15:09.373Z,57.17
2018-02-07T04:17:36.992Z,58.30
2018-02-07T04:20:04.659Z,56.97
2018-02-07T04:22:32.746Z,51.77
2018-02-07T04:25:00.316Z,50.70
2018-02-07T04:27:28.082Z,60.30
2018-02-07T04:29:55.646Z,61.57
2018-02-07T04:32:23.229Z,61.33
2018-02-07T04:34:50.935Z,48.63
2018-02-07T04:37:18.506Z,55.07
2018-02-07T04:39:46.120Z,65.93
2018-02-07T04:42:14.778Z,49.83
2018-02-07T04:44:42.352Z,53.63
2018-02-07T04:47:09.920Z,52.67
2018-02-07T04:49:38.878Z,54.63
2018-02-07T04:52:06.516Z,53.23
2018-02-07T04:54:34.077Z,52.57
2018-02-07T04:57:01.679Z,54.20
2018-02-07T04:59:29.241Z,51.80
2018-02-07T05:01:56.840Z,54.70
2018-02-07T05:04:24.743Z,55.80
2018-02-07T05:06:52.318Z,55.33
2018-02-07T05:09:19.944Z,63.20
2018-02-07T05:11:47.823Z,56.43
2018-02-07T05:14:15.409Z,55.13
2018-02-07T05:16:42.972Z,53.93
2018-02-07T05:19:11.635Z,51.10
2018-02-07T05:21:39.688Z,57.07
2018-02-07T05:24:07.258Z,54.43
2018-02-07T05:26:34.867Z,56.40
2018-02-07T05:29:02.791Z,50.60
2018-02-07T05:31:30.376Z,61.47
2018-02-07T05:33:58.724Z,55.63
2018-02-07T05:36:26.681Z,59.17
2018-02-07T05:38:54.258Z,57.07
2018-02-07T05:41:21.826Z,52.10
2018-02-07T05:43:49.781Z,56.97
2018-02-07T05:46:17.362Z,62.23
2018-02-07T05:48:45.692Z,61.20
2018-02-07T05:51:14.174Z,51.00
2018-02-07T05:53:41.724Z,58.73
2018-02-07T05:56:09.300Z,53.30
2018-02-07T05:58:37.188Z,55.27
2018-02-07T06:01:04.745Z,52.80
2018-02-07T06:03:32.319Z,60.53
2018-02-07T06:06:00.966Z,58.73
2018-02-07T06:08:29.390Z,54.83
2018-02-07T06:10:57.734Z,60.73
2018-02-07T06:13:25.347Z,56.60
2018-02-07T06:15:52.901Z,59.83
2018-02-07T06:18:20.467Z,51.80
2018-02-07T06:20:48.333Z,62.07
2018-02-07T06:23:15.861Z,52.27
2018-02-07T06:25:44.189Z,60.40
2018-02-07T06:28:12.022Z,51.70
2018-02-07T06:30:39.597Z,54.30
2018-02-07T06:33:07.161Z,56.20
2018-02-07T06:35:34.759Z,62.83
2018-02-07T06:38:02.345Z,61.80
2018-02-07T06:40:30.684Z,58.93
2018-02-07T06:42:58.539Z,53.20
2018-02-07T06:45:26.114Z,58.17
2018-02-07T06:47:53.668Z,64.53
2018-02-07T06:50:21.540Z,57.50
2018-02-07T06:52:49.114Z,56.07
2018-02-07T06:55:23.612Z,60.10
2018-02-07T06:57:51.586Z,56.63
2018-02-07T07:00:19.161Z,63.97
2018-02-07T07:02:47.514Z,59.43
2018-02-07T07:05:15.118Z,56.20
2018-02-07T07:07:43.427Z,56.17
2018-02-07T07:10:11.577Z,54.10
2018-02-07T07:12:39.569Z,52.83
2018-02-07T07:15:07.134Z,57.67
2018-02-07T07:17:34.721Z,62.90
2018-02-07T07:20:02.685Z,51.10
2018-02-07T07:22:30.282Z,57.43
2018-02-07T07:24:58.594Z,51.10
2018-02-07T07:27:26.466Z,53.43
2018-02-07T07:29:54.209Z,58.43
2018-02-07T07:32:21.796Z,48.47
2018-02-07T07:34:49.383Z,56.03
2018-02-07T07:37:17.892Z,56.13
2018-02-07T07:39:45.460Z,48.37
2018-02-07T07:42:13.367Z,47.70
2018-02-07T07:44:41.214Z,53.40
2018-02-07T07:47:08.784Z,49.30
2018-02-07T07:49:36.652Z,49.63
2018-02-07T07:52:04.201Z,47.53
2018-02-07T07:54:31.886Z,47.63
2018-02-07T07:56:59.503Z,57.40
2018-02-07T07:59:27.098Z,43.33
2018-02-07T08:01:54.709Z,44.37
2018-02-07T08:04:22.280Z,45.17
2018-02-07T08:06:49.910Z,41.23
2018-02-07T08:09:17.454Z,54.83
2018-02-07T08:11:46.982Z,41.40
2018-02-07T08:14:14.551Z,55.37
2018-02-07T08:16:42.147Z,47.10
2018-02-07T08:19:10.028Z,49.67
2018-02-07T08:21:37.595Z,39.20
2018-02-07T08:24:07.012Z,41.67
2018-02-07T08:26:35.366Z,37.67
2018-02-07T08:29:02.940Z,42.60
2018-02-07T08:31:31.544Z,47.13
2018-02-07T08:33:59.879Z,45.07
2018-02-07T08:36:27.456Z,41.90
2018-02-07T08:38:55.034Z,44.70
2018-02-07T08:41:23.370Z,48.07
2018-02-07T08:43:51.244Z,39.80
2018-02-07T08:46:18.809Z,43.73
2018-02-07T08:48:47.882Z,39.77
2018-02-07T08:51:15.502Z,41.50
2018-02-07T08:53:43.077Z,37.53
2018-02-07T08:56:10.976Z,41.40
2018-02-07T08:58:38.541Z,41.47
2018-02-07T09:01:06.109Z,38.60
2018-02-07T09:03:33.697Z,44.53
2018-02-07T09:06:02.046Z,42.37
2018-02-07T09:08:30.714Z,46.53
2018-02-07T09:10:58.282Z,39.60
2018-02-07T09:13:25.845Z,42.57
2018-02-07T09:15:53.437Z,39.57
2018-02-07T09:18:21.002Z,44.73
2018-02-07T09:20:48.601Z,39.77
2018-02-07T09:23:16.213Z,39.70
2018-02-07T09:25:45.226Z,42.30
2018-02-07T09:28:13.160Z,42.03
2018-02-07T09:30:41.508Z,43.07
2018-02-07T09:33:09.078Z,37.67
2018-02-07T09:35:36.674Z,40.80
2018-02-07T09:38:04.234Z,39.23
2018-02-07T09:40:32.142Z,38.33
2018-02-07T09:42:59.725Z,42.17
2018-02-07T09:45:27.330Z,49.27
2018-02-07T09:47:54.931Z,36.83
2018-02-07T09:50:22.483Z,32.70
2018-02-07T09:52:50.419Z,36.53
2018-02-07T09:55:18.002Z,34.53
2018-02-07T09:57:45.574Z,37.43
2018-02-07T10:00:13.958Z,33.03
2018-02-07T10:02:41.547Z,30.80
2018-02-07T10:05:09.902Z,35.10
2018-02-07T10:07:37.489Z,34.60
2018-02-07T10:10:05.887Z,31.63
2018-02-07T10:12:33.485Z,37.43
2018-02-07T10:15:01.041Z,30.80
2018-02-07T10:17:29.000Z,34.33
2018-02-07T10:19:56.583Z,35.83
2018-02-07T10:22:24.170Z,30.20
2018-02-07T10:24:51.757Z,29.20
2018-02-07T10:27:19.333Z,28.73
2018-02-07T10:29:46.972Z,30.30
2018-02-07T10:32:14.889Z,38.10
2018-02-07T10:34:43.226Z,31.87
2018-02-07T10:37:11.096Z,30.10
2018-02-07T10:39:38.694Z,31.73
2018-02-07T10:42:06.274Z,32.90
2018-02-07T10:44:34.650Z,36.83
2018-02-07T10:47:03.070Z,33.40
2018-02-07T10:49:30.690Z,31.57
2018-02-07T10:51:59.018Z,32.90
2018-02-07T10:54:26.605Z,33.67
2018-02-07T10:56:54.192Z,22.83
2018-02-07T10:59:21.748Z,26.43
2018-02-07T11:01:50.109Z,24.40
2018-02-07T11:04:18.444Z,25.37
2018-02-07T11:06:46.028Z,24.90
2018-02-07T11:09:15.407Z,30.87
2018-02-07T11:11:42.969Z,25.80
2018-02-07T11:14:10.546Z,30.13
2018-02-07T11:16:40.024Z,30.47
2018-02-07T11:19:08.392Z,25.87
2018-02-07T11:21:35.964Z,34.90
2018-02-07T11:24:03.923Z,29.40
2018-02-07T11:26:31.483Z,29.03
2018-02-07T11:28:59.054Z,27.50
2018-02-07T11:31:26.672Z,29.40
2018-02-07T11:33:54.241Z,25.40
2018-02-07T11:36:21.824Z,26.03
2018-02-07T11:38:49.395Z,27.30
2018-02-07T11:41:17.359Z,27.37
2018-02-07T11:43:45.193Z,27.73
2018-02-07T11:46:12.783Z,32.00
2018-02-07T11:48:40.762Z,27.93
2018-02-07T11:51:08.335Z,26.90
2018-02-07T11:53:35.903Z,30.70
2018-02-07T11:56:04.544Z,31.40
2018-02-07T11:58:32.098Z,36.33
2018-02-07T12:00:59.671Z,29.83
2018-02-07T12:03:27.643Z,30.70
2018-02-07T12:05:55.256Z,31.60
2018-02-07T12:08:22.821Z,28.73
2018-02-07T12:10:50.793Z,35.30
2018-02-07T12:13:18.341Z,31.80
2018-02-07T12:15:45.897Z,27.17
2018-02-07T12:18:13.798Z,26.63
2018-02-07T12:20:41.352Z,30.30
2018-02-07T12:23:09.007Z,24.00
2018-02-07T12:25:36.621Z,26.47
2018-02-07T12:28:04.951Z,28.27
2018-02-07T12:30:32.822Z,22.20
2018-02-07T12:33:00.429Z,27.73
2018-02-07T12:35:28.756Z,29.27
2018-02-07T12:37:56.362Z,25.67
2018-02-07T12:40:24.748Z,29.67
2018-02-07T12:42:54.082Z,25.53
2018-02-07T12:45:21.652Z,22.93
2018-02-07T12:47:49.218Z,25.93
2018-02-07T12:50:16.844Z,25.30
2018-02-07T12:52:44.397Z,29.83
2018-02-07T12:55:11.956Z,28.37
2018-02-07T12:57:40.298Z,26.07
2018-02-07T13:00:07.870Z,22.67
2018-02-07T13:02:36.201Z,25.20
2018-02-07T13:05:03.811Z,26.30
2018-02-07T13:07:32.154Z,24.30
2018-02-07T13:09:59.840Z,24.37
2018-02-07T13:12:27.437Z,29.83
2018-02-07T13:14:55.104Z,29.87
2018-02-07T13:17:23.410Z,24.07
2018-02-07T13:19:50.988Z,28.27
2018-02-07T13:22:18.922Z,26.00
2018-02-07T13:24:46.559Z,29.80
2018-02-07T13:27:14.140Z,26.30
2018-02-07T13:29:42.359Z,27.43
2018-02-07T13:32:10.696Z,24.00
2018-02-07T13:34:38.253Z,25.93
2018-02-07T13:37:05.842Z,25.57
2018-02-07T13:39:33.411Z,25.47
2018-02-07T13:42:01.777Z,22.20
2018-02-07T13:44:29.355Z,26.03
2018-02-07T13:46:57.682Z,24.70
2018-02-07T13:49:25.285Z,25.90
2018-02-07T13:51:53.658Z,26.53
2018-02-07T13:54:22.040Z,24.50
2018-02-07T13:56:50.414Z,22.00
2018-02-07T13:59:18.767Z,20.40
2018-02-07T14:01:46.722Z,23.40
2018-02-07T14:04:14.284Z,24.17
2018-02-07T14:06:41.855Z,25.17
2018-02-07T14:09:10.701Z,30.53
2018-02-07T14:11:38.284Z,20.13
2018-02-07T14:19:16.526Z,18.70
2018-02-07T14:21:44.085Z,23.53
2018-02-07T14:24:11.660Z,24.33
2018-02-07T14:26:39.536Z,24.27
2018-02-07T14:29:08.619Z,23.33
2018-02-07T14:31:36.173Z,24.83
2018-02-07T14:34:04.030Z,25.07
2018-02-07T14:36:31.609Z,17.17
2018-02-07T14:38:59.187Z,32.60
2018-02-07T14:41:27.837Z,26.30
2018-02-07T14:43:55.504Z,24.93
2018-02-07T14:46:23.072Z,27.10
2018-02-07T14:48:51.013Z,24.70
2018-02-07T14:51:18.573Z,25.03
2018-02-07T14:53:46.141Z,27.33
2018-02-07T14:56:14.110Z,25.13
2018-02-07T14:58:41.689Z,27.80
2018-02-07T15:01:10.014Z,21.13
2018-02-07T15:03:38.400Z,28.10
2018-02-07T15:06:06.006Z,26.60
2018-02-07T15:08:34.496Z,24.63
2018-02-07T15:11:03.038Z,29.83
2018-02-07T15:13:30.600Z,29.90
2018-02-07T15:15:58.158Z,24.57
2018-02-07T15:18:25.786Z,25.83
2018-02-07T15:20:53.400Z,26.43
2018-02-07T15:23:21.876Z,25.00
2018-02-07T15:25:49.469Z,30.33
2018-02-07T15:28:17.677Z,25.10
2018-02-07T15:30:45.238Z,26.67
2018-02-07T15:33:12.882Z,25.40
2018-02-07T15:35:40.768Z,25.63
2018-02-07T15:38:08.340Z,24.87
2018-02-07T15:40:35.923Z,27.70
2018-02-07T15:43:04.536Z,25.70
2018-02-07T15:45:32.113Z,30.07
2018-02-07T15:47:59.690Z,24.87
2018-02-07T15:50:27.554Z,21.10
2018-02-07T15:52:55.609Z,30.70
2018-02-07T15:55:23.171Z,32.03
2018-02-07T15:57:50.795Z,25.37
2018-02-07T16:00:19.428Z,22.63
2018-02-07T16:02:47.007Z,26.67
2018-02-07T16:05:14.971Z,24.13
2018-02-07T16:07:43.296Z,22.97
2018-02-07T16:10:10.856Z,22.50
2018-02-07T16:12:38.862Z,27.73
2018-02-07T16:15:06.433Z,20.73
2018-02-07T16:17:34.084Z,22.80
2018-02-07T16:20:01.682Z,22.93
2018-02-07T16:22:30.419Z,23.10
2018-02-07T16:24:57.999Z,22.17
2018-02-07T16:27:25.586Z,24.43
2018-02-07T16:29:53.980Z,25.40
2018-02-07T16:32:21.573Z,25.03
2018-02-07T16:34:49.208Z,21.90
2018-02-07T16:37:16.793Z,23.53
2018-02-07T16:39:44.367Z,24.90
2018-02-07T16:42:12.323Z,25.30
2018-02-07T16:44:39.914Z,25.90
2018-02-07T16:47:08.246Z,21.47
2018-02-07T16:49:36.446Z,24.07
2018-02-07T16:52:04.021Z,25.37
2018-02-07T16:54:32.369Z,29.07
2018-02-07T16:56:59.953Z,23.17
2018-02-07T16:59:27.514Z,27.07
2018-02-07T17:01:55.775Z,35.77
2018-02-07T17:04:23.366Z,27.93
2018-02-07T17:06:50.947Z,26.63
2018-02-07T17:09:18.560Z,29.20
2018-02-07T17:11:46.130Z,29.23
2018-02-07T17:14:14.907Z,29.33
2018-02-07T17:16:42.491Z,29.83
2018-02-07T17:19:10.825Z,30.80
2018-02-07T17:21:38.424Z,31.83
2018-02-07T17:24:06.834Z,35.77
2018-02-07T17:26:34.933Z,38.07
2018-02-07T17:29:02.510Z,39.23
2018-02-07T17:31:30.078Z,50.77
2018-02-07T17:33:59.199Z,66.57
2018-02-07T17:36:27.539Z,55.73
2018-02-07T17:38:55.449Z,46.50
2018-02-07T17:41:23.022Z,42.40
2018-02-07T17:43:50.598Z,50.50
2018-02-07T17:46:18.198Z,39.40
2018-02-07T17:48:45.763Z,41.67
2018-02-07T17:51:14.518Z,46.67
2018-02-07T17:53:42.075Z,49.40
2018-02-07T17:56:09.633Z,37.10
2018-02-07T17:58:37.215Z,41.30
2018-02-07T18:01:04.776Z,47.23
2018-02-07T18:03:32.425Z,38.13
2018-02-07T18:05:59.985Z,41.63
2018-02-07T18:08:29.135Z,43.37
2018-02-07T18:10:56.748Z,35.00
2018-02-07T18:13:24.313Z,46.80
2018-02-07T18:15:52.808Z,67.87
2018-02-07T18:18:21.419Z,70.93
2018-02-07T18:20:49.004Z,45.57
2018-02-07T18:23:16.608Z,45.90
2018-02-07T18:25:45.115Z,40.60
2018-02-07T18:28:12.729Z,33.40
2018-02-07T18:30:40.304Z,41.00
2018-02-07T18:33:08.651Z,34.43
2018-02-07T18:35:37.354Z,38.07
2018-02-07T18:38:04.918Z,48.27
2018-02-07T18:40:33.261Z,44.10
2018-02-07T18:43:01.187Z,45.67
2018-02-07T18:45:28.766Z,51.33
2018-02-07T18:47:56.343Z,47.33
2018-02-07T18:50:24.509Z,52.80
2018-02-07T18:52:52.073Z,53.83
2018-02-07T18:55:19.820Z,59.50
2018-02-07T18:57:47.439Z,65.13
2018-02-07T19:00:15.798Z,67.30
2018-02-07T19:02:43.398Z,56.40
2018-02-07T19:05:10.976Z,54.07
2018-02-07T19:07:38.699Z,53.23
2018-02-07T19:10:06.417Z,49.10
2018-02-07T19:12:33.988Z,57.00
2018-02-07T19:15:01.559Z,64.53
2018-02-07T19:17:29.516Z,55.53
2018-02-07T19:19:57.111Z,66.93
2018-02-07T19:22:24.667Z,61.90
2018-02-07T19:24:53.405Z,60.10
2018-02-07T19:27:20.989Z,56.67
2018-02-07T19:29:48.681Z,54.93
2018-02-07T19:32:16.592Z,60.13
2018-02-07T19:34:45.109Z,56.23
2018-02-07T19:37:12.667Z,56.37
2018-02-07T19:39:41.062Z,77.43
2018-02-07T19:42:08.642Z,75.30
2018-02-07T19:44:36.201Z,75.13
2018-02-07T19:47:04.233Z,64.70
2018-02-07T19:49:32.557Z,71.17
2018-02-07T19:52:00.133Z,66.20
2018-02-07T19:54:27.820Z,57.23
2018-02-07T19:56:56.176Z,64.47
2018-02-07T19:59:23.740Z,63.50
2018-02-07T20:01:51.336Z,65.23
2018-02-07T20:04:19.726Z,70.80
2018-02-07T20:06:47.317Z,80.90
2018-02-07T20:09:15.230Z,66.13
2018-02-07T20:11:43.589Z,69.40
2018-02-07T20:14:12.687Z,72.17
2018-02-07T20:16:40.585Z,68.20
2018-02-07T20:19:09.104Z,66.13
2018-02-07T20:21:36.697Z,73.60
2018-02-07T20:24:04.321Z,62.73
2018-02-07T20:26:31.904Z,68.90
2018-02-07T20:28:59.504Z,70.07
2018-02-07T20:31:28.250Z,66.40
2018-02-07T20:33:55.806Z,67.07
2018-02-07T20:36:24.293Z,59.00
2018-02-07T20:38:52.253Z,64.40
2018-02-07T20:41:19.827Z,79.77
2018-02-07T20:43:47.395Z,73.20
2018-02-07T20:46:17.287Z,64.50
2018-02-07T20:48:44.913Z,76.63
2018-02-07T20:51:12.643Z,68.80
2018-02-07T20:53:42.641Z,72.10
2018-02-07T20:56:10.243Z,76.77
2018-02-07T20:58:37.873Z,72.47
2018-02-07T21:01:08.024Z,75.33
2018-02-07T21:03:35.587Z,72.13
2018-02-07T21:06:03.202Z,69.80
2018-02-07T21:08:31.216Z,71.27
2018-02-07T21:10:58.793Z,80.50
2018-02-07T21:13:26.358Z,72.10
2018-02-07T21:15:54.307Z,76.80
2018-02-07T21:18:21.927Z,73.27
2018-02-07T21:20:50.275Z,83.20
2018-02-07T21:23:18.254Z,77.20
2018-02-07T21:25:45.820Z,78.37
2018-02-07T21:28:13.480Z,78.80
2018-02-07T21:30:41.455Z,70.43
2018-02-07T21:33:09.822Z,70.97
2018-02-07T21:35:37.402Z,91.37
2018-02-07T21:38:05.774Z,66.23
2018-02-07T21:40:34.127Z,71.47
2018-02-07T21:43:02.073Z,74.37
2018-02-07T21:45:29.640Z,75.83
2018-02-07T21:47:57.203Z,83.50
2018-02-07T21:50:24.835Z,81.83
2018-02-07T21:52:52.853Z,82.37
2018-02-07T21:55:20.445Z,81.00
2018-02-07T21:57:48.005Z,81.53
2018-02-07T22:00:15.638Z,86.70
2018-02-07T22:02:43.970Z,83.80
2018-02-07T22:05:11.544Z,84.13
2018-02-07T22:07:39.471Z,78.97
2018-02-07T22:10:07.042Z,86.20
2018-02-07T22:12:34.605Z,84.27
2018-02-07T22:15:02.586Z,86.70
2018-02-07T22:17:30.148Z,78.43
2018-02-07T22:19:57.732Z,89.27
2018-02-07T22:22:25.680Z,90.23
2018-02-07T22:24:53.471Z,87.40
2018-02-07T22:27:21.048Z,87.97
2018-02-07T22:29:49.424Z,81.80
2018-02-07T22:32:17.843Z,88.83
2018-02-07T22:34:45.458Z,81.23
2018-02-07T22:37:13.828Z,81.43
2018-02-07T22:39:42.183Z,91.37
2018-02-07T22:42:09.779Z,98.97
2018-02-07T22:44:38.118Z,91.80
2018-02-07T22:47:06.084Z,80.33
2018-02-07T22:49:33.685Z,82.57
2018-02-07T22:52:02.357Z,85.73
2018-02-07T22:54:30.769Z,91.63
2018-02-07T22:56:58.365Z,96.70
2018-02-07T22:59:25.930Z,90.13
2018-02-07T23:01:53.522Z,88.33
2018-02-07T23:04:22.032Z,95.77
2018-02-07T23:06:49.600Z,80.23
2018-02-07T23:09:17.774Z,91.37
2018-02-07T23:11:45.337Z,98.60
2018-02-07T23:14:13.364Z,98.70
2018-02-07T23:16:41.696Z,100.17
2018-02-07T23:19:09.266Z,97.90
2018-02-07T23:21:36.876Z,94.60
2018-02-07T23:24:04.456Z,105.70
2018-02-07T23:26:32.323Z,96.17
2018-02-07T23:28:59.908Z,119.10
2018-02-07T23:31:27.468Z,104.67
2018-02-07T23:33:55.082Z,100.47
2018-02-07T23:36:22.747Z,93.37
2018-02-07T23:38:50.739Z,114.00
2018-02-07T23:41:18.310Z,102.60
2018-02-07T23:43:45.891Z,98.07
2018-02-07T23:46:14.257Z,119.17
2018-02-07T23:48:41.863Z,121.90
2018-02-07T23:51:09.478Z,113.60
2018-02-07T23:53:37.859Z,129.70
2018-02-07T23:56:05.452Z,114.90
2018-02-07T23:58:33.051Z,100.83
